Time;durP1;ratioP1;P1;durP2;ratioP2;P2;SDS_P1;SDS_P2;PMS_P1;PMS_P2;Temp;Humidity;BMP_temperature;BMP_pressure;BME280_temperature;BME280_humidity;BME280_pressure;Samples;Min_cycle;Max_cycle;Signal;HPM_P1;HPM_P2
2021/08/20 00:02:09;;;;;;;;;;;20.80;69.30;;;;;;5003503;28;1320;-75
2021/08/20 00:04:34;;;;;;;;;;;20.80;69.30;;;;;;5015382;28;1033;-74
2021/08/20 00:06:59;;;;;;;;;;;20.80;69.40;;;;;;5010964;28;1926;-75
2021/08/20 00:09:26;;;;;;;;;;;20.80;69.40;;;;;;5010526;28;1356;-74
2021/08/20 00:11:51;;;;;;;;;;;20.80;69.40;;;;;;5008353;28;1666;-74
2021/08/20 00:14:17;;;;;;;;;;;20.80;69.30;;;;;;5008534;28;1214;-74
2021/08/20 00:16:43;;;;;;;;;;;20.80;69.30;;;;;;5015188;28;1358;-74
2021/08/20 00:19:08;;;;;;;;;;;20.80;69.30;;;;;;5015722;28;1710;-74
2021/08/20 00:21:34;;;;;;;;;;;20.80;69.30;;;;;;5000938;28;1355;-74
2021/08/20 00:23:59;;;;;;;;;;;20.80;69.40;;;;;;5013463;28;1093;-74
2021/08/20 00:26:25;;;;;;;;;;;20.80;69.40;;;;;;5003206;28;1214;-74
2021/08/20 00:28:50;;;;;;;;;;;20.80;69.50;;;;;;5012230;28;1977;-73
2021/08/20 00:31:16;;;;;;;;;;;20.80;69.50;;;;;;5007801;28;1182;-74
2021/08/20 00:33:41;;;;;;;;;;;20.80;69.40;;;;;;5008579;28;1177;-73
2021/08/20 00:36:06;;;;;;;;;;;20.80;69.40;;;;;;5018801;28;1131;-73
2021/08/20 00:38:34;;;;;;;;;;;20.80;69.40;;;;;;5009239;28;1258;-73
2021/08/20 00:40:59;;;;;;;;;;;20.80;69.40;;;;;;5018692;28;1088;-73
2021/08/20 00:43:25;;;;;;;;;;;20.80;69.50;;;;;;5008087;28;1056;-73
2021/08/20 00:45:52;;;;;;;;;;;20.80;69.40;;;;;;5013443;28;1290;-74
2021/08/20 00:48:17;;;;;;;;;;;20.80;69.40;;;;;;5011743;28;1874;-73
2021/08/20 00:50:42;;;;;;;;;;;20.80;69.50;;;;;;5018921;28;1297;-73
2021/08/20 00:53:08;;;;;;;;;;;20.80;69.50;;;;;;5020540;28;1111;-74
2021/08/20 00:55:33;;;;;;;;;;;20.80;69.50;;;;;;5010409;28;1162;-73
2021/08/20 00:57:59;;;;;;;;;;;20.80;69.50;;;;;;5012721;28;1164;-74
2021/08/20 01:00:24;;;;;;;;;;;20.80;69.50;;;;;;4989382;28;1294;-73
2021/08/20 01:02:50;;;;;;;;;;;20.80;69.60;;;;;;5010058;28;1091;-73
2021/08/20 01:05:18;;;;;;;;;;;20.80;69.60;;;;;;5017044;28;1139;-74
2021/08/20 01:07:44;;;;;;;;;;;20.80;69.60;;;;;;5019751;28;1910;-74
2021/08/20 01:10:11;;;;;;;;;;;20.80;69.60;;;;;;5008385;28;1340;-74
2021/08/20 01:12:36;;;;;;;;;;;20.80;69.70;;;;;;5014500;28;1170;-74
2021/08/20 01:15:02;;;;;;;;;;;20.80;69.60;;;;;;5020819;28;1274;-74
2021/08/20 01:17:27;;;;;;;;;;;20.80;69.90;;;;;;5016777;28;1227;-72
2021/08/20 01:19:53;;;;;;;;;;;20.80;69.90;;;;;;5011448;28;1408;-73
2021/08/20 01:22:18;;;;;;;;;;;20.80;69.90;;;;;;5011525;28;1458;-73
2021/08/20 01:24:47;;;;;;;;;;;20.90;69.90;;;;;;5009151;28;1306;-73
2021/08/20 01:27:14;;;;;;;;;;;20.80;69.70;;;;;;5009506;28;1981;-73
2021/08/20 01:29:40;;;;;;;;;;;20.80;69.80;;;;;;5012788;28;1310;-73
2021/08/20 01:32:06;;;;;;;;;;;20.80;69.70;;;;;;5012865;28;1321;-73
2021/08/20 01:34:31;;;;;;;;;;;20.80;69.70;;;;;;5008840;28;1448;-73
2021/08/20 01:36:56;;;;;;;;;;;20.80;69.60;;;;;;5010669;28;1410;-73
2021/08/20 01:39:22;;;;;;;;;;;20.80;69.60;;;;;;5008920;28;1297;-72
2021/08/20 01:41:47;;;;;;;;;;;20.80;69.60;;;;;;5009848;28;1413;-73
2021/08/20 01:44:13;;;;;;;;;;;20.80;69.70;;;;;;5013154;28;1322;-73
2021/08/20 01:46:38;;;;;;;;;;;20.80;69.70;;;;;;5011467;28;1413;-72
2021/08/20 01:49:04;;;;;;;;;;;20.80;69.70;;;;;;5014834;28;1898;-73
2021/08/20 01:51:30;;;;;;;;;;;20.80;69.70;;;;;;5019615;28;1092;-73
2021/08/20 01:53:56;;;;;;;;;;;20.80;69.70;;;;;;5014013;28;1474;-73
2021/08/20 01:56:25;;;;;;;;;;;20.80;69.70;;;;;;5017222;28;1169;-73
2021/08/20 01:58:54;;;;;;;;;;;20.80;69.70;;;;;;5005562;28;1349;-73
2021/08/20 02:01:19;;;;;;;;;;;20.80;69.70;;;;;;5017915;28;1539;-73
2021/08/20 02:03:45;;;;;;;;;;;20.80;69.70;;;;;;5004819;28;1294;-73
2021/08/20 02:06:10;;;;;;;;;;;20.80;69.70;;;;;;5018657;28;1119;-73
2021/08/20 02:08:36;;;;;;;;;;;20.80;69.70;;;;;;5009347;28;1886;-74
2021/08/20 02:11:01;;;;;;;;;;;20.80;69.70;;;;;;5000172;28;1043;-73
2021/08/20 02:13:26;;;;;;;;;;;20.80;69.70;;;;;;5013546;28;1187;-73
2021/08/20 02:15:52;;;;;;;;;;;20.80;69.70;;;;;;5011894;28;1159;-73
2021/08/20 02:18:17;;;;;;;;;;;20.80;69.70;;;;;;5014014;28;1036;-73
2021/08/20 02:20:43;;;;;;;;;;;20.80;69.70;;;;;;5000423;28;1302;-73
2021/08/20 02:23:09;;;;;;;;;;;20.90;69.80;;;;;;5012676;28;1116;-73
2021/08/20 02:25:34;;;;;;;;;;;20.80;69.80;;;;;;4999692;28;979;-73
2021/08/20 02:27:59;;;;;;;;;;;20.80;69.80;;;;;;5017135;28;1965;-73
2021/08/20 02:30:25;;;;;;;;;;;20.80;69.70;;;;;;5018999;28;1198;-73
2021/08/20 02:32:50;;;;;;;;;;;20.80;69.80;;;;;;5005567;28;1047;-73
2021/08/20 02:35:16;;;;;;;;;;;20.80;69.70;;;;;;5006076;28;1235;-73
2021/08/20 02:37:41;;;;;;;;;;;20.80;69.80;;;;;;5016984;28;1187;-73
2021/08/20 02:40:07;;;;;;;;;;;20.80;69.80;;;;;;5017479;28;1291;-73
2021/08/20 02:42:32;;;;;;;;;;;20.80;69.80;;;;;;5017015;28;1378;-73
2021/08/20 02:44:58;;;;;;;;;;;20.80;69.80;;;;;;4999563;28;902;-72
2021/08/20 02:47:23;;;;;;;;;;;20.80;69.80;;;;;;5003661;28;1895;-73
2021/08/20 02:49:49;;;;;;;;;;;20.80;69.80;;;;;;5027686;28;1318;-73
2021/08/20 02:52:14;;;;;;;;;;;20.80;69.80;;;;;;5017603;28;1072;-73
2021/08/20 02:54:40;;;;;;;;;;;20.80;69.80;;;;;;5017064;28;1052;-73
2021/08/20 02:57:05;;;;;;;;;;;20.80;69.80;;;;;;5015540;28;1127;-73
2021/08/20 02:59:30;;;;;;;;;;;20.80;69.80;;;;;;5032359;28;1376;-73
2021/08/20 03:01:58;;;;;;;;;;;20.90;69.90;;;;;;4996589;28;1177;-72
2021/08/20 03:04:23;;;;;;;;;;;20.80;69.80;;;;;;5021205;28;1111;-72
2021/08/20 03:06:49;;;;;;;;;;;20.80;69.80;;;;;;5002302;28;1115;-72
2021/08/20 03:09:14;;;;;;;;;;;20.80;69.80;;;;;;5015372;28;1898;-72
2021/08/20 03:11:39;;;;;;;;;;;20.80;69.80;;;;;;5000747;28;1254;-71
2021/08/20 03:14:05;;;;;;;;;;;20.80;69.80;;;;;;5003420;28;917;-72
2021/08/20 03:16:31;;;;;;;;;;;20.90;69.90;;;;;;5012233;28;1075;-72
2021/08/20 03:18:56;;;;;;;;;;;20.80;69.90;;;;;;5004220;28;1377;-72
2021/08/20 03:21:22;;;;;;;;;;;20.80;69.90;;;;;;5006985;28;1044;-72
2021/08/20 03:23:47;;;;;;;;;;;20.80;69.90;;;;;;5005896;28;1150;-73
2021/08/20 03:26:13;;;;;;;;;;;20.80;69.90;;;;;;5002636;28;1226;-73
2021/08/20 03:28:38;;;;;;;;;;;20.80;69.90;;;;;;5018672;28;1884;-73
2021/08/20 03:31:04;;;;;;;;;;;20.80;69.90;;;;;;5017961;28;1076;-73
2021/08/20 03:33:29;;;;;;;;;;;20.80;69.90;;;;;;5012433;28;1210;-74
2021/08/20 03:35:55;;;;;;;;;;;20.80;69.90;;;;;;5011103;28;1135;-73
2021/08/20 03:38:20;;;;;;;;;;;20.80;69.90;;;;;;5013792;28;1044;-74
2021/08/20 03:40:48;;;;;;;;;;;20.80;69.80;;;;;;5005874;28;1170;-73
2021/08/20 03:43:14;;;;;;;;;;;20.80;69.90;;;;;;5023670;28;1135;-74
2021/08/20 03:45:40;;;;;;;;;;;20.80;69.90;;;;;;5006507;28;1080;-73
2021/08/20 03:48:05;;;;;;;;;;;20.80;69.90;;;;;;5013361;28;1902;-74
2021/08/20 03:50:30;;;;;;;;;;;20.80;69.90;;;;;;5021661;28;1332;-73
2021/08/20 03:52:56;;;;;;;;;;;20.80;70.00;;;;;;5021245;28;1108;-73
2021/08/20 03:55:21;;;;;;;;;;;20.80;70.00;;;;;;5018732;28;1095;-73
2021/08/20 03:57:49;;;;;;;;;;;20.90;70.00;;;;;;5012048;28;1144;-73
2021/08/20 04:00:15;;;;;;;;;;;20.80;70.00;;;;;;5004103;28;1300;-73
2021/08/20 04:02:40;;;;;;;;;;;20.80;70.00;;;;;;5012345;28;1139;-73
2021/08/20 04:05:06;;;;;;;;;;;20.90;70.10;;;;;;5008379;28;1107;-73
2021/08/20 04:07:31;;;;;;;;;;;20.80;70.00;;;;;;5010430;28;1907;-73
2021/08/20 04:09:57;;;;;;;;;;;20.80;70.00;;;;;;4999884;28;1408;-73
2021/08/20 04:12:22;;;;;;;;;;;20.80;70.00;;;;;;5020932;28;1299;-73
2021/08/20 04:14:48;;;;;;;;;;;20.80;70.00;;;;;;5018588;28;1106;-73
2021/08/20 04:17:13;;;;;;;;;;;20.80;70.00;;;;;;5020954;28;1028;-73
2021/08/20 04:19:39;;;;;;;;;;;20.80;70.00;;;;;;5021799;28;1299;-73
2021/08/20 04:22:04;;;;;;;;;;;20.80;70.00;;;;;;5023215;28;1079;-73
2021/08/20 04:24:29;;;;;;;;;;;20.80;70.00;;;;;;5021554;28;1358;-73
2021/08/20 04:26:55;;;;;;;;;;;20.80;70.00;;;;;;5020812;28;1277;-73
2021/08/20 04:29:20;;;;;;;;;;;20.90;70.10;;;;;;5019022;28;1946;-74
2021/08/20 04:31:46;;;;;;;;;;;20.90;70.10;;;;;;5006537;28;2031;-72
2021/08/20 04:34:11;;;;;;;;;;;20.80;70.00;;;;;;5015240;28;1247;-74
2021/08/20 04:36:36;;;;;;;;;;;20.80;70.00;;;;;;5015679;28;1147;-74
2021/08/20 04:39:02;;;;;;;;;;;20.80;70.00;;;;;;5005379;28;1338;-73
2021/08/20 04:41:28;;;;;;;;;;;20.80;70.00;;;;;;5012200;28;1154;-73
2021/08/20 04:43:53;;;;;;;;;;;20.90;70.10;;;;;;5015537;28;965;-75
2021/08/20 04:46:19;;;;;;;;;;;20.80;70.10;;;;;;5017476;28;1252;-73
2021/08/20 04:48:44;;;;;;;;;;;20.90;70.10;;;;;;5015944;28;1907;-74
2021/08/20 04:51:09;;;;;;;;;;;20.90;70.10;;;;;;5015873;28;1271;-73
2021/08/20 04:53:35;;;;;;;;;;;20.90;70.10;;;;;;5002352;28;1123;-74
2021/08/20 04:56:00;;;;;;;;;;;20.80;70.10;;;;;;5014541;28;1210;-73
2021/08/20 04:58:26;;;;;;;;;;;20.90;70.20;;;;;;5000638;28;1083;-73
2021/08/20 05:00:51;;;;;;;;;;;20.90;70.20;;;;;;5004401;28;1331;-73
2021/08/20 05:03:17;;;;;;;;;;;20.90;70.20;;;;;;5001997;28;1035;-74
2021/08/20 05:05:45;;;;;;;;;;;20.80;70.10;;;;;;5006428;28;1060;-74
2021/08/20 05:08:11;;;;;;;;;;;20.90;70.00;;;;;;5008885;28;1910;-74
2021/08/20 05:10:37;;;;;;;;;;;20.80;70.00;;;;;;5004062;28;1191;-74
2021/08/20 05:13:02;;;;;;;;;;;20.90;70.10;;;;;;4997701;28;1707;-70
2021/08/20 05:15:28;;;;;;;;;;;20.90;70.00;;;;;;5009213;28;1288;-69
2021/08/20 05:17:53;;;;;;;;;;;20.80;70.00;;;;;;5014720;28;1290;-69
2021/08/20 05:20:19;;;;;;;;;;;20.90;70.10;;;;;;5014848;28;1354;-70
2021/08/20 05:22:45;;;;;;;;;;;20.90;70.00;;;;;;5014634;28;1222;-69
2021/08/20 05:25:10;;;;;;;;;;;20.90;70.10;;;;;;5014784;28;1408;-69
2021/08/20 05:27:36;;;;;;;;;;;20.90;70.10;;;;;;5014602;28;1983;-69
2021/08/20 05:30:02;;;;;;;;;;;20.90;70.10;;;;;;5014809;28;1330;-69
2021/08/20 05:32:27;;;;;;;;;;;20.90;70.20;;;;;;5014717;28;1274;-69
2021/08/20 05:34:52;;;;;;;;;;;20.80;70.20;;;;;;5014567;28;1330;-70
2021/08/20 05:37:18;;;;;;;;;;;20.80;70.30;;;;;;5014580;28;1352;-70
2021/08/20 05:39:43;;;;;;;;;;;20.90;70.40;;;;;;5013436;28;1312;-71
2021/08/20 05:42:09;;;;;;;;;;;20.80;70.30;;;;;;5014500;28;1289;-71
2021/08/20 05:44:34;;;;;;;;;;;20.90;70.40;;;;;;5014936;28;1064;-71
2021/08/20 05:46:59;;;;;;;;;;;20.80;70.40;;;;;;5014526;28;1953;-70
2021/08/20 05:49:25;;;;;;;;;;;20.90;70.40;;;;;;5013966;28;1202;-70
2021/08/20 05:51:51;;;;;;;;;;;20.80;71.20;;;;;;5014252;28;1383;-69
2021/08/20 05:54:16;;;;;;;;;;;20.80;70.40;;;;;;5014040;28;1332;-70
2021/08/20 05:56:42;;;;;;;;;;;20.80;70.40;;;;;;5014240;28;1201;-70
2021/08/20 05:59:08;;;;;;;;;;;20.80;70.40;;;;;;5012914;28;1287;-70
2021/08/20 06:01:34;;;;;;;;;;;20.90;70.40;;;;;;5010828;28;1775;-70
2021/08/20 06:03:59;;;;;;;;;;;20.90;70.40;;;;;;5014242;28;1319;-70
2021/08/20 06:06:25;;;;;;;;;;;20.80;70.40;;;;;;5015465;28;1253;-70
2021/08/20 06:08:51;;;;;;;;;;;20.80;70.40;;;;;;5014667;28;1906;-72
2021/08/20 06:11:16;;;;;;;;;;;20.90;70.60;;;;;;5000571;28;1091;-70
2021/08/20 06:13:43;;;;;;;;;;;20.80;70.50;;;;;;4995960;28;1907;-71
2021/08/20 06:16:09;;;;;;;;;;;20.80;70.50;;;;;;4999995;28;2206;-71
2021/08/20 06:18:34;;;;;;;;;;;20.80;70.70;;;;;;5011759;28;2784;-70
2021/08/20 06:21:00;;;;;;;;;;;20.80;70.70;;;;;;5013772;28;1321;-70
2021/08/20 06:23:25;;;;;;;;;;;20.80;70.60;;;;;;5013617;28;1318;-72
2021/08/20 06:25:50;;;;;;;;;;;20.80;70.60;;;;;;5013638;28;1211;-71
2021/08/20 06:28:16;;;;;;;;;;;20.90;70.70;;;;;;5013517;28;1918;-71
2021/08/20 06:30:46;;;;;;;;;;;20.80;70.80;;;;;;5012244;28;1314;-70
2021/08/20 06:33:12;;;;;;;;;;;20.80;70.90;;;;;;5013830;28;1407;-71
2021/08/20 06:35:37;;;;;;;;;;;20.80;71.00;;;;;;5013321;28;1031;-73
2021/08/20 06:38:02;;;;;;;;;;;20.80;71.00;;;;;;5014059;28;1327;-73
2021/08/20 06:40:28;;;;;;;;;;;20.80;71.00;;;;;;5011806;28;1270;-72
2021/08/20 06:42:53;;;;;;;;;;;20.80;71.10;;;;;;5013442;28;1385;-73
2021/08/20 06:45:19;;;;;;;;;;;20.90;71.10;;;;;;5013212;28;1386;-73
2021/08/20 06:47:44;;;;;;;;;;;20.90;71.10;;;;;;5013368;28;1966;-73
2021/08/20 06:50:10;;;;;;;;;;;20.90;71.10;;;;;;5013338;28;1360;-73
2021/08/20 06:52:36;;;;;;;;;;;20.90;71.50;;;;;;5012278;28;1291;-73
2021/08/20 06:55:01;;;;;;;;;;;20.80;71.00;;;;;;5011641;28;1161;-73
2021/08/20 06:57:27;;;;;;;;;;;20.90;71.10;;;;;;5012991;28;1277;-74
2021/08/20 06:59:52;;;;;;;;;;;20.90;71.10;;;;;;5013261;28;1357;-74
2021/08/20 07:02:17;;;;;;;;;;;20.90;71.10;;;;;;5012431;28;1500;-74
2021/08/20 07:04:43;;;;;;;;;;;20.80;71.10;;;;;;5013104;28;1331;-74
2021/08/20 07:07:08;;;;;;;;;;;20.80;71.10;;;;;;5013437;28;1961;-73
2021/08/20 07:09:37;;;;;;;;;;;20.80;71.10;;;;;;5012845;28;1391;-74
2021/08/20 07:12:02;;;;;;;;;;;20.80;71.30;;;;;;5012896;28;1410;-74
2021/08/20 07:14:28;;;;;;;;;;;20.80;71.20;;;;;;5012889;28;1281;-74
2021/08/20 07:16:53;;;;;;;;;;;20.80;71.20;;;;;;5012945;28;1273;-73
2021/08/20 07:19:18;;;;;;;;;;;20.80;71.10;;;;;;5012941;28;1334;-74
2021/08/20 07:21:44;;;;;;;;;;;20.80;71.00;;;;;;5012985;28;1371;-74
2021/08/20 07:24:09;;;;;;;;;;;20.90;71.00;;;;;;5011438;28;1345;-74
2021/08/20 07:26:35;;;;;;;;;;;20.80;70.90;;;;;;5012635;28;1278;-74
2021/08/20 07:29:00;;;;;;;;;;;20.80;71.00;;;;;;5012807;28;1915;-74
2021/08/20 07:31:26;;;;;;;;;;;20.80;71.00;;;;;;5012382;28;1421;-74
2021/08/20 07:33:51;;;;;;;;;;;20.80;71.00;;;;;;5010983;28;1414;-75
2021/08/20 07:36:17;;;;;;;;;;;20.80;70.90;;;;;;5012583;28;1270;-74
2021/08/20 07:38:42;;;;;;;;;;;20.80;70.90;;;;;;5011336;28;1370;-74
2021/08/20 07:41:08;;;;;;;;;;;20.80;70.90;;;;;;5011234;28;1111;-75
2021/08/20 07:43:33;;;;;;;;;;;20.80;71.60;;;;;;5011269;28;1088;-74
2021/08/20 07:45:59;;;;;;;;;;;20.80;70.80;;;;;;5011562;28;2033;-74
2021/08/20 07:48:25;;;;;;;;;;;20.80;70.70;;;;;;5012750;28;1907;-74
2021/08/20 07:50:50;;;;;;;;;;;20.80;70.70;;;;;;5004673;28;1997;-74
2021/08/20 07:53:16;;;;;;;;;;;20.80;70.60;;;;;;5009794;28;1227;-75
2021/08/20 07:55:42;;;;;;;;;;;20.80;70.50;;;;;;5010829;28;1113;-75
2021/08/20 07:58:07;;;;;;;;;;;20.80;70.50;;;;;;5012471;28;1261;-74
2021/08/20 08:00:33;;;;;;;;;;;20.80;70.40;;;;;;5011079;28;1509;-74
2021/08/20 08:03:00;;;;;;;;;;;20.80;70.50;;;;;;5012214;28;1071;-74
2021/08/20 08:05:25;;;;;;;;;;;20.80;70.40;;;;;;5029782;28;1443;-74
2021/08/20 08:07:51;;;;;;;;;;;20.80;70.40;;;;;;5012060;28;1902;-74
2021/08/20 08:10:16;;;;;;;;;;;20.80;70.30;;;;;;4994036;28;1599;-75
2021/08/20 08:12:42;;;;;;;;;;;20.80;70.20;;;;;;5011580;28;1374;-75
2021/08/20 08:15:08;;;;;;;;;;;20.80;70.10;;;;;;4996014;28;1453;-73
2021/08/20 08:17:34;;;;;;;;;;;20.80;70.10;;;;;;4996728;28;1681;-74
2021/08/20 08:19:59;;;;;;;;;;;20.80;70.10;;;;;;4995255;28;1410;-74
2021/08/20 08:22:24;;;;;;;;;;;20.80;70.00;;;;;;4996545;28;1327;-75
2021/08/20 08:24:50;;;;;;;;;;;20.80;69.80;;;;;;4996555;28;1312;-75
2021/08/20 08:27:15;;;;;;;;;;;20.80;69.70;;;;;;4990866;28;1914;-75
2021/08/20 08:29:41;;;;;;;;;;;20.80;69.70;;;;;;4998171;28;1269;-75
2021/08/20 08:32:06;;;;;;;;;;;20.80;69.50;;;;;;4998437;28;1246;-75
2021/08/20 08:34:32;;;;;;;;;;;20.80;69.50;;;;;;5015556;28;1334;-75
2021/08/20 08:36:57;;;;;;;;;;;20.80;69.50;;;;;;5014721;28;1308;-75
2021/08/20 08:39:22;;;;;;;;;;;20.80;69.30;;;;;;5015416;28;1349;-75
2021/08/20 08:41:48;;;;;;;;;;;20.80;69.30;;;;;;5014599;28;1284;-75
2021/08/20 08:44:13;;;;;;;;;;;20.80;69.20;;;;;;5015302;28;1409;-75
2021/08/20 08:46:39;;;;;;;;;;;20.80;69.30;;;;;;4998103;28;1392;-75
2021/08/20 08:49:04;;;;;;;;;;;20.80;69.20;;;;;;5015451;28;1910;-75
2021/08/20 08:51:30;;;;;;;;;;;20.80;69.10;;;;;;5014297;28;1461;-75
2021/08/20 08:53:55;;;;;;;;;;;20.80;69.10;;;;;;4997721;28;1420;-75
2021/08/20 08:56:20;;;;;;;;;;;20.80;69.10;;;;;;4994378;28;1319;-75
2021/08/20 08:58:46;;;;;;;;;;;20.80;69.10;;;;;;5011976;28;1392;-75
2021/08/20 09:01:27;;;;;;;;;;;20.80;69.30;;;;;;5004573;28;1285;-75
2021/08/20 09:04:11;;;;;;;;;;;20.80;69.40;;;;;;5013813;28;1246;-75
2021/08/20 09:06:37;;;;;;;;;;;20.80;69.40;;;;;;5002027;28;1357;-73
2021/08/20 09:09:04;;;;;;;;;;;20.80;69.50;;;;;;5014967;28;1975;-74
2021/08/20 09:11:29;;;;;;;;;;;20.80;69.70;;;;;;5011816;28;1362;-75
2021/08/20 09:13:55;;;;;;;;;;;20.80;69.80;;;;;;4995345;28;1331;-74
2021/08/20 09:16:20;;;;;;;;;;;20.80;69.80;;;;;;5009412;28;1073;-74
2021/08/20 09:18:45;;;;;;;;;;;20.80;70.00;;;;;;5006227;28;1260;-74
2021/08/20 09:21:15;;;;;;;;;;;20.80;70.00;;;;;;4997303;28;1329;-75
2021/08/20 09:23:41;;;;;;;;;;;20.80;70.00;;;;;;4997422;28;1322;-75
2021/08/20 09:26:06;;;;;;;;;;;20.80;69.90;;;;;;5012746;28;1186;-74
2021/08/20 09:28:32;;;;;;;;;;;20.80;69.90;;;;;;5013411;28;1980;-74
2021/08/20 09:31:24;;;;;;;;;;;20.80;70.30;;;;;;4997133;28;1301;-74
2021/08/20 09:33:50;;;;;;;;;;;20.80;70.20;;;;;;5013332;28;1405;-74
2021/08/20 09:36:19;;;;;;;;;;;20.80;70.20;;;;;;5013523;28;1197;-74
2021/08/20 09:38:57;;;;;;;;;;;20.80;70.20;;;;;;5013394;28;1271;-74
2021/08/20 09:41:27;;;;;;;;;;;20.80;70.20;;;;;;5006336;28;1068;-74
2021/08/20 09:43:55;;;;;;;;;;;20.80;70.30;;;;;;4993519;28;1402;-75
2021/08/20 09:46:21;;;;;;;;;;;20.80;70.30;;;;;;5003106;28;1136;-75
2021/08/20 09:48:52;;;;;;;;;;;20.80;71.10;;;;;;5014382;28;1910;-74
2021/08/20 09:51:32;;;;;;;;;;;20.80;70.30;;;;;;5014520;28;1401;-74
2021/08/20 09:53:58;;;;;;;;;;;20.80;70.50;;;;;;5012918;28;1321;-74
2021/08/20 09:56:23;;;;;;;;;;;20.80;70.40;;;;;;5002440;28;1207;-74
2021/08/20 09:58:49;;;;;;;;;;;20.80;70.50;;;;;;5028157;28;1295;-74
2021/08/20 10:01:14;;;;;;;;;;;20.80;70.60;;;;;;5001221;28;1295;-74
2021/08/20 10:03:39;;;;;;;;;;;20.80;70.80;;;;;;4998355;28;1342;-74
2021/08/20 10:06:05;;;;;;;;;;;20.80;70.80;;;;;;5012794;28;1579;-75
2021/08/20 10:08:30;;;;;;;;;;;20.80;70.80;;;;;;4996456;28;1976;-74
2021/08/20 10:10:57;;;;;;;;;;;20.80;70.90;;;;;;5012647;28;1454;-75
2021/08/20 10:13:22;;;;;;;;;;;20.80;70.80;;;;;;5009051;28;1613;-74
2021/08/20 10:15:48;;;;;;;;;;;20.80;70.90;;;;;;5011713;28;2027;-74
2021/08/20 10:18:15;;;;;;;;;;;20.80;70.90;;;;;;5009330;28;1239;-74
2021/08/20 10:20:41;;;;;;;;;;;20.80;71.10;;;;;;5008733;28;1210;-74
2021/08/20 10:23:06;;;;;;;;;;;20.80;71.10;;;;;;5001897;28;2431;-74
2021/08/20 10:25:32;;;;;;;;;;;20.80;71.10;;;;;;5023433;28;1317;-74
2021/08/20 10:27:57;;;;;;;;;;;20.90;71.10;;;;;;5010689;28;1906;-74
2021/08/20 10:30:23;;;;;;;;;;;20.80;71.10;;;;;;5011000;28;1308;-74
2021/08/20 10:33:01;;;;;;;;;;;20.80;71.80;;;;;;5007788;28;1204;-74
2021/08/20 10:35:45;;;;;;;;;;;20.80;71.10;;;;;;5013306;28;1209;-74
2021/08/20 10:38:24;;;;;;;;;;;20.80;71.50;;;;;;5012282;28;1388;-74
2021/08/20 10:41:08;;;;;;;;;;;20.80;71.30;;;;;;5012338;28;1344;-74
2021/08/20 10:43:45;;;;;;;;;;;20.90;71.40;;;;;;5013231;28;1052;-74
2021/08/20 10:46:11;;;;;;;;;;;20.90;71.50;;;;;;5012340;28;1291;-74
2021/08/20 10:48:37;;;;;;;;;;;20.90;71.50;;;;;;5013223;28;1969;-73
2021/08/20 10:51:02;;;;;;;;;;;20.90;71.40;;;;;;5012094;28;1298;-74
2021/08/20 10:53:27;;;;;;;;;;;20.90;71.40;;;;;;5013143;28;1251;-74
2021/08/20 10:55:53;;;;;;;;;;;20.90;71.50;;;;;;5004358;28;1164;-74
2021/08/20 10:58:20;;;;;;;;;;;20.80;71.40;;;;;;5022362;28;1374;-74
2021/08/20 11:00:52;;;;;;;;;;;20.90;71.60;;;;;;4976168;28;1418;-73
2021/08/20 11:03:18;;;;;;;;;;;20.90;71.40;;;;;;4992007;28;1157;-73
2021/08/20 11:05:44;;;;;;;;;;;20.90;71.40;;;;;;4992208;28;1263;-73
2021/08/20 11:08:28;;;;;;;;;;;20.90;71.40;;;;;;4992306;28;1902;-73
2021/08/20 11:10:59;;;;;;;;;;;20.90;72.10;;;;;;4993512;28;1249;-74
2021/08/20 11:13:25;;;;;;;;;;;20.90;71.50;;;;;;4992107;28;1128;-73
2021/08/20 11:15:53;;;;;;;;;;;20.90;71.50;;;;;;4993423;28;1083;-73
2021/08/20 11:18:49;;;;;;;;;;;20.90;71.50;;;;;;4993543;28;1261;-74
2021/08/20 11:21:40;;;;;;;;;;;20.90;71.50;;;;;;4992326;28;1261;-72
2021/08/20 11:24:15;;;;;;;;;;;20.90;71.50;;;;;;4991594;28;1081;-73
2021/08/20 11:26:44;;;;;;;;;;;20.90;71.40;;;;;;4999517;28;1312;-74
2021/08/20 11:29:09;;;;;;;;;;;20.90;71.40;;;;;;5011585;28;1914;-74
2021/08/20 11:31:34;;;;;;;;;;;20.90;71.40;;;;;;5013007;28;1274;-74
2021/08/20 11:34:00;;;;;;;;;;;20.90;71.30;;;;;;5012676;28;1218;-73
2021/08/20 11:36:25;;;;;;;;;;;20.90;71.20;;;;;;5011425;28;1511;-73
2021/08/20 11:38:56;;;;;;;;;;;20.90;71.20;;;;;;5012767;28;1228;-73
2021/08/20 11:41:27;;;;;;;;;;;20.90;71.40;;;;;;5011693;28;1123;-73
2021/08/20 11:43:53;;;;;;;;;;;20.90;71.40;;;;;;5011445;28;1068;-73
2021/08/20 11:46:19;;;;;;;;;;;20.90;71.40;;;;;;4995362;28;1470;-74
2021/08/20 11:48:45;;;;;;;;;;;20.90;71.40;;;;;;5013495;28;1894;-73
2021/08/20 11:51:10;;;;;;;;;;;20.90;71.40;;;;;;5014535;28;2037;-73
2021/08/20 11:53:36;;;;;;;;;;;20.90;71.50;;;;;;5016368;28;1361;-73
2021/08/20 11:56:08;;;;;;;;;;;20.90;71.40;;;;;;5009886;28;1134;-72
2021/08/20 11:58:34;;;;;;;;;;;20.90;71.40;;;;;;5016450;28;1251;-71
2021/08/20 12:00:59;;;;;;;;;;;20.90;71.40;;;;;;5015249;28;1308;-72
2021/08/20 12:03:24;;;;;;;;;;;20.90;71.50;;;;;;5016498;28;973;-73
2021/08/20 12:05:50;;;;;;;;;;;20.90;71.50;;;;;;5016224;28;1139;-72
2021/08/20 12:08:19;;;;;;;;;;;20.90;71.50;;;;;;4999239;28;1906;-73
2021/08/20 12:10:45;;;;;;;;;;;20.90;71.50;;;;;;4995865;28;1237;-74
2021/08/20 12:13:12;;;;;;;;;;;20.90;71.50;;;;;;4979034;28;1386;-74
2021/08/20 12:15:37;;;;;;;;;;;20.90;71.50;;;;;;4996614;28;1362;-73
2021/08/20 12:18:18;;;;;;;;;;;20.90;71.40;;;;;;4995405;28;1301;-74
2021/08/20 12:20:43;;;;;;;;;;;20.90;71.40;;;;;;4996446;28;1261;-73
2021/08/20 12:23:09;;;;;;;;;;;20.90;71.40;;;;;;5001306;28;1410;-75
2021/08/20 12:25:34;;;;;;;;;;;20.90;72.30;;;;;;5004600;28;1079;-74
2021/08/20 12:27:59;;;;;;;;;;;20.90;71.50;;;;;;5012911;28;1902;-75
2021/08/20 12:30:25;;;;;;;;;;;20.90;71.60;;;;;;5014624;28;1364;-74
2021/08/20 12:32:54;;;;;;;;;;;20.90;71.60;;;;;;5001406;28;1096;-74
2021/08/20 12:35:20;;;;;;;;;;;20.90;71.60;;;;;;5004039;28;1106;-74
2021/08/20 12:37:58;;;;;;;;;;;20.90;71.80;;;;;;5014516;28;1413;-72
2021/08/20 12:40:23;;;;;;;;;;;20.90;71.80;;;;;;5001778;28;1412;-72
2021/08/20 12:42:50;;;;;;;;;;;20.90;71.80;;;;;;4996669;28;1243;-71
2021/08/20 12:45:19;;;;;;;;;;;20.90;71.70;;;;;;5012853;28;1346;-71
2021/08/20 12:47:45;;;;;;;;;;;20.90;71.70;;;;;;5013310;28;1902;-71
2021/08/20 12:50:11;;;;;;;;;;;20.90;71.60;;;;;;5014896;28;1310;-75
2021/08/20 12:52:37;;;;;;;;;;;20.90;71.70;;;;;;5006117;28;1152;-75
2021/08/20 12:55:21;;;;;;;;;;;20.90;71.80;;;;;;5001984;28;1284;-70
2021/08/20 12:57:49;;;;;;;;;;;20.90;71.80;;;;;;5014381;28;1088;-69
2021/08/20 13:00:15;;;;;;;;;;;20.90;71.80;;;;;;5009783;28;1243;-72
2021/08/20 13:02:40;;;;;;;;;;;20.90;71.70;;;;;;4994917;28;1240;-72
2021/08/20 13:05:06;;;;;;;;;;;20.90;71.80;;;;;;4994498;28;906;-71
2021/08/20 13:07:32;;;;;;;;;;;20.90;71.80;;;;;;4995145;28;1910;-76
2021/08/20 13:09:57;;;;;;;;;;;20.90;71.70;;;;;;5008477;28;1246;-75
2021/08/20 13:12:22;;;;;;;;;;;20.90;71.70;;;;;;5005288;28;1146;-75
2021/08/20 13:14:48;;;;;;;;;;;20.90;71.80;;;;;;5013054;28;1916;-72
2021/08/20 13:17:13;;;;;;;;;;;20.90;71.80;;;;;;5005774;28;1840;-72
2021/08/20 13:19:39;;;;;;;;;;;20.90;71.80;;;;;;5014810;28;1333;-72
2021/08/20 13:22:04;;;;;;;;;;;20.90;71.80;;;;;;5014884;28;1075;-72
2021/08/20 13:24:30;;;;;;;;;;;20.90;71.90;;;;;;5014457;28;1346;-73
2021/08/20 13:26:55;;;;;;;;;;;20.90;71.90;;;;;;5014632;28;1065;-73
2021/08/20 13:29:20;;;;;;;;;;;20.90;71.90;;;;;;5014536;28;1969;-73
2021/08/20 13:31:46;;;;;;;;;;;20.90;71.90;;;;;;5015016;28;1254;-73
2021/08/20 13:34:11;;;;;;;;;;;20.90;71.90;;;;;;5014417;28;1271;-72
2021/08/20 13:36:37;;;;;;;;;;;20.90;71.90;;;;;;5005702;28;985;-72
2021/08/20 13:39:02;;;;;;;;;;;20.90;71.80;;;;;;4995007;28;1189;-72
2021/08/20 13:41:32;;;;;;;;;;;20.90;71.80;;;;;;4994942;28;1325;-73
2021/08/20 13:43:58;;;;;;;;;;;20.90;71.80;;;;;;4993593;28;1376;-73
2021/08/20 13:46:23;;;;;;;;;;;20.90;71.90;;;;;;4993691;28;1331;-72
2021/08/20 13:48:51;;;;;;;;;;;20.90;71.90;;;;;;4997716;28;1866;-73
2021/08/20 13:51:18;;;;;;;;;;;20.90;71.80;;;;;;5012143;28;1937;-72
2021/08/20 13:53:43;;;;;;;;;;;20.90;72.20;;;;;;5012883;28;1335;-72
2021/08/20 13:56:09;;;;;;;;;;;20.90;71.70;;;;;;5012702;28;1122;-72
2021/08/20 13:58:34;;;;;;;;;;;20.90;71.60;;;;;;5012444;28;1280;-72
2021/08/20 14:01:00;;;;;;;;;;;20.90;71.60;;;;;;5013062;28;1412;-72
2021/08/20 14:03:25;;;;;;;;;;;20.90;71.60;;;;;;5013890;28;1028;-72
2021/08/20 14:05:51;;;;;;;;;;;20.90;71.50;;;;;;5014123;28;1084;-72
2021/08/20 14:08:16;;;;;;;;;;;20.90;71.60;;;;;;5014205;28;1910;-72
2021/08/20 14:10:41;;;;;;;;;;;20.90;71.60;;;;;;5009887;28;2196;-74
2021/08/20 14:13:07;;;;;;;;;;;20.90;71.50;;;;;;5013802;28;1328;-73
2021/08/20 14:15:32;;;;;;;;;;;20.90;71.50;;;;;;5013904;28;1170;-73
2021/08/20 14:17:58;;;;;;;;;;;20.90;71.60;;;;;;5012844;28;1254;-74
2021/08/20 14:20:23;;;;;;;;;;;20.90;72.40;;;;;;5013891;28;1284;-73
2021/08/20 14:22:49;;;;;;;;;;;21.00;71.70;;;;;;5014155;28;1123;-74
2021/08/20 14:25:14;;;;;;;;;;;20.90;71.60;;;;;;5003660;28;1116;-74
2021/08/20 14:27:40;;;;;;;;;;;20.90;71.60;;;;;;4978909;28;1894;-74